Chippewa Falls, WI

12:21 PM CST on February 21, 2017 (GMT -0600)
Lake Wissota | | Change Station
Active Advisory: Flood Warning

Elev 925 ft 44.98 °N, 91.34 °W | Updated 2 seconds ago

Clear
Clear
46.9 °F
Feels Like 46 °F
N
3.5
Wind Variable Wind from SE
Gusts 3.5 mph

Today
High -- | Low -- °F
--% Chance of Precip.
Yesterday
High -- | Low -- °F
Precip. -- in
Pressure 29.91 in
Visibility 10.0 miles
Clouds Clear
Windchill 46 °F
Dew Point 44 °F
Humidity 91%
Rainfall 0.00 in
Snow Depth Not available.
6:56 AM 5:42 PM
Waning Crescent, 23% visible
METAR KEAU 211756Z 17005KT 10SM CLR 08/03 A2989 RMK AO2 SLP126 T00780028 10078 20022 58005
Pressure 29.91 in
Visibility 10.0 miles
Clouds Clear
Windchill 46 °F
Dew Point 44 °F
Humidity 91%
Rainfall 0.00 in
Snow Depth Not available.
6:56 AM 5:42 PM
Waning Crescent, 23% visible
METAR KEAU 211756Z 17005KT 10SM CLR 08/03 A2989 RMK AO2 SLP126 T00780028 10078 20022 58005

Get Your Daily Forecast Email!

Thanks for signing up!

Be on the lookout for a verification email in your inbox.

You'll start receiving the daily forecast at 8 AM.

×

10-Day Weather Forecast

Almanac

Astronomy

Feb. 21, 2017 Rise Set
Actual Time
Civil Twilight
Nautical Twilight
Astronomical Twilight
Moon
Length of Visible Light
Length of Day
Tomorrow will be .
, % of the Moon is Illuminated

Today's Extremes

State Highs State Lows

Community

WunderPhotos

Upload Photos

1,962,540 photos uploaded!

WunderBlog® & News

Nearby

Air Quality

  Air Quality AQ Index Pollutant
Not available.

Snow Depth

Station Depth Elevation

Earthquake Activity

City Distance Mag. Time & Date
Minimum magnitude displayed is 2.5.

Coastal Water Temperatures

Place Temperature

Stations

Nearby Weather Stations

Station Location Temp. Windchill Dew Point Humidity Wind Precip. Elev Updated Type
                   

Watches & Warnings

Flood Warning
Issued: 12:07 PM CST Feb. 21, 2017 – National Weather Service

... Flood Warning continues through Thursday morning for
the Eau Claire river near Fall Creek.
* From late tonight to Thursday morning.
* At 7:30 am Tuesday the stage was 5.3 feet.
* Minor flooding is forecast.
* Flood stage is 11.0 feet.
* Forecast... rise above flood stage by early tomorrow and continue to
rise to near 12.3 feet by tomorrow afternoon. The river will
fall below flood stage by Thursday morning.
* Impact... at 13.0 feet... roads near the river begin to flood.
* Impact... at 11.0 feet... some park and agricultural lands become
inundated.
* Impact... at 10.0 feet... river currents become dangerous for
recreational users.


Lat... Lon 4481 9137 4480 9130 4476 9123 4478 9121 4482 9127 4483 9139